| time (UTC) | temp F | wind direction | speed knots | gust knots | rain 1hr in | rain 24hr in | rain mn in | humidity % | barometer mb |
| 20260509080133 | 71 | 176 | 1.7 | 6.1 | 0.00 | 0.00 | 0.00 | 91 | 1005.4 |
| 20260509075631 | 71 | 132 | 2.6 | 5.2 | 0.00 | 0.00 | 0.00 | 91 | 1005.3 |
| 20260509075128 | 71 | 124 | 2.6 | 4.3 | 0.00 | 0.00 | 0.00 | 91 | 1005.4 |
| 20260509074625 | 71 | 133 | 1.7 | 2.6 | 0.00 | 0.00 | 0.00 | 91 | 1005.7 |
| 20260509074121 | 71 | 145 | 0.9 | 2.6 | 0.00 | 0.00 | 0.00 | 91 | 1006.0 |
| 20260509073618 | 71 | 136 | 0.9 | 1.7 | 0.00 | 0.00 | 0.00 | 91 | 1006.0 |
| 20260509073114 | 71 | 169 | 0.9 | 0.9 | 0.00 | 0.00 | 0.00 | 90 | 1006.4 |
| 20260509072611 | 71 | 131 | 1.7 | 4.3 | 0.00 | 0.00 | 0.00 | 90 | 1006.2 |
| 20260509072108 | 71 | 180 | 0.9 | 2.6 | 0.00 | 0.00 | 0.00 | 90 | 1006.4 |
| 20260509071605 | 71 | 196 | 0.9 | 4.3 | 0.00 | 0.00 | 0.00 | 90 | 1006.6 |
| 20260509071102 | 71 | 142 | 0.9 | 1.7 | 0.00 | 0.00 | 0.00 | 91 | 1006.7 |
| 20260509070559 | 71 | 198 | 3.5 | 4.3 | 0.00 | 0.00 | 0.00 | 91 | 1006.6 |
| 20260509070055 | 70 | 170 | 1.7 | 2.6 | 0.00 | 0.00 | 0.00 | 91 | 1006.9 |
| 20260509065551 | 70 | 268 | 0.0 | 1.7 | 0.00 | 0.00 | 0.00 | 91 | 1006.8 |
| 20260509065047 | 70 | 203 | 0.0 | 1.7 | 0.00 | 0.00 | 0.00 | 91 | 1006.5 |
| 20260509064545 | 70 | 206 | 0.9 | 1.7 | 0.00 | 0.00 | 0.00 | 91 | 1006.5 |
| 20260509064043 | 70 | 221 | 0.0 | 0.9 | 0.00 | 0.00 | 0.00 | 91 | 1006.6 |
| 20260509063538 | 70 | 178 | 2.6 | 4.3 | 0.00 | 0.00 | 0.00 | 90 | 1006.3 |
| 20260509063036 | 70 | 238 | 1.7 | 4.3 | 0.00 | 0.00 | 0.00 | 90 | 1005.9 |
| 20260509062532 | 70 | 157 | 1.7 | 5.2 | 0.00 | 0.00 | 0.00 | 89 | 1005.9 |
| 20260509062030 | 70 | 175 | 0.9 | 5.2 | 0.00 | 0.00 | 0.00 | 89 | 1006.3 |
| 20260509061527 | 71 | 169 | 1.7 | 2.6 | 0.00 | 0.00 | 0.00 | 89 | 1006.5 |
| 20260509061024 | 71 | 198 | 0.9 | 1.7 | 0.00 | 0.00 | 0.00 | 88 | 1006.5 |
| 20260509060521 | 71 | 164 | 1.7 | 2.6 | 0.00 | 0.00 | 0.00 | 88 | 1006.2 |
| 20260509060017 | 71 | 116 | 1.7 | 1.7 | 0.00 | 0.00 | 0.00 | 88 | 1006.3 |
| 20260509055513 | 70 | 145 | 2.6 | 2.6 | 0.00 | 0.00 | 0.00 | 88 | 1006.4 |
| 20260509055009 | 71 | 174 | 0.9 | 1.7 | 0.00 | 0.00 | 0.00 | 88 | 1006.8 |
| 20260509054506 | 71 | 202 | 0.9 | 1.7 | 0.00 | 0.00 | 0.00 | 88 | 1006.9 |
| 20260509054004 | 71 | 142 | 0.9 | 1.7 | 0.00 | 0.00 | 0.00 | 87 | 1007.0 |
| 20260509053502 | 71 | 166 | 0.0 | 0.9 | 0.00 | 0.00 | 0.00 | 87 | 1007.0 |
| 20260509052959 | 71 | 163 | 0.0 | 0.0 | 0.00 | 0.00 | 0.00 | 87 | 1006.8 |
| 20260509052456 | 71 | 199 | 0.9 | 2.6 | 0.00 | 0.00 | 0.00 | 86 | 1006.7 |
| 20260509051954 | 71 | 161 | 0.9 | 1.7 | 0.00 | 0.00 | 0.00 | 86 | 1007.2 |
| 20260509051452 | 71 | 338 | 2.6 | 2.6 | 0.00 | 0.00 | 0.00 | 86 | 1007.8 |
| 20260509050949 | 71 | 310 | 2.6 | 4.3 | 0.00 | 0.00 | 0.00 | 86 | 1008.0 |
| 20260509050445 | 70 | 9 | 1.7 | 2.6 | 0.00 | 0.00 | 0.00 | 87 | 1007.6 |
| 20260509045942 | 71 | 33 | 0.9 | 2.6 | 0.00 | 0.17 | 0.17 | 86 | 1007.0 |
| 20260509045439 | 71 | 185 | 0.9 | 1.7 | 0.00 | 0.17 | 0.17 | 85 | 1006.3 |
| 20260509044936 | 71 | 181 | 0.9 | 1.7 | 0.00 | 0.17 | 0.17 | 85 | 1006.0 |
| 20260509044434 | 71 | 160 | 0.9 | 1.7 | 0.00 | 0.17 | 0.17 | 84 | 1006.3 |
| 20260509043931 | 71 | 110 | 1.7 | 1.7 | 0.00 | 0.17 | 0.17 | 84 | 1006.3 |
| 20260509043426 | 72 | 198 | 0.9 | 2.6 | 0.00 | 0.17 | 0.17 | 83 | 1005.9 |
| 20260509042922 | 72 | 175 | 2.6 | 5.2 | 0.00 | 0.17 | 0.17 | 83 | 1005.7 |
| 20260509042420 | 72 | 158 | 3.5 | 5.2 | 0.00 | 0.17 | 0.17 | 83 | 1006.2 |
| 20260509041915 | 72 | 193 | 0.9 | 4.3 | 0.00 | 0.17 | 0.17 | 82 | 1006.2 |
| 20260509041412 | 72 | 145 | 0.0 | 4.3 | 0.00 | 0.17 | 0.17 | 82 | 1006.2 |
| 20260509040911 | 72 | 121 | 6.1 | 7.8 | 0.00 | 0.17 | 0.17 | 82 | 1005.9 |
| 20260509040408 | 72 | 95 | 4.3 | 9.6 | 0.00 | 0.17 | 0.17 | 82 | 1005.8 |
| 20260509035905 | 72 | 124 | 2.6 | 5.2 | 0.00 | 0.17 | 0.17 | 82 | 1006.3 |
| 20260509035402 | 72 | 121 | 2.6 | 4.3 | 0.00 | 0.17 | 0.17 | 82 | 1006.5 |
| 20260509034858 | 72 | 119 | 2.6 | 2.6 | 0.00 | 0.17 | 0.17 | 82 | 1006.5 |
| 20260509034356 | 72 | 121 | 0.9 | 1.7 | 0.00 | 0.17 | 0.17 | 82 | 1007.1 |
| 20260509033853 | 72 | 29 | 0.0 | 0.9 | 0.00 | 0.17 | 0.17 | 82 | 1007.1 |
| 20260509033350 | 72 | 54 | 0.0 | 0.9 | 0.00 | 0.17 | 0.17 | 82 | 1007.1 |
| 20260509032846 | 72 | 89 | 0.0 | 0.0 | 0.00 | 0.17 | 0.17 | 82 | 1006.7 |
| 20260509032344 | 73 | 96 | 0.0 | 0.0 | 0.00 | 0.17 | 0.17 | 81 | 1006.7 |
| 20260509031842 | 73 | 136 | 0.0 | 0.0 | 0.00 | 0.17 | 0.17 | 81 | 1006.5 |
| 20260509031339 | 73 | 151 | 0.9 | 2.6 | 0.00 | 0.17 | 0.17 | 81 | 1006.4 |
| 20260509030836 | 73 | 136 | 0.9 | 1.7 | 0.00 | 0.17 | 0.17 | 81 | 1006.5 |
| 20260509030334 | 73 | 102 | 0.9 | 0.9 | 0.00 | 0.17 | 0.17 | 81 | 1006.5 |
| 20260509025831 | 73 | 92 | 0.0 | 0.9 | 0.00 | 0.17 | 0.17 | 81 | 1006.6 |
| 20260509025326 | 73 | 177 | 0.9 | 1.7 | 0.00 | 0.17 | 0.17 | 81 | 1006.4 |
| 20260509024822 | 73 | 153 | 0.0 | 1.7 | 0.00 | 0.17 | 0.17 | 81 | 1006.3 |
| 20260509024318 | 73 | 59 | 0.9 | 1.7 | 0.00 | 0.17 | 0.17 | 81 | 1005.8 |
| 20260509023816 | 73 | 140 | 1.7 | 2.6 | 0.00 | 0.17 | 0.17 | 81 | 1005.4 |
| 20260509023313 | 73 | 173 | 2.6 | 5.2 | 0.00 | 0.17 | 0.17 | 81 | 1005.4 |
| 20260509022809 | 73 | 148 | 4.3 | 7.8 | 0.00 | 0.17 | 0.17 | 81 | 1005.3 |
| 20260509022307 | 73 | 128 | 4.3 | 7.0 | 0.00 | 0.17 | 0.17 | 80 | 1005.2 |
| 20260509021803 | 73 | 122 | 2.6 | 5.2 | 0.00 | 0.17 | 0.17 | 80 | 1005.0 |
| 20260509021301 | 73 | 174 | 2.6 | 5.2 | 0.00 | 0.17 | 0.17 | 80 | 1004.9 |
| 20260509020758 | 73 | 183 | 3.5 | 6.1 | 0.00 | 0.17 | 0.17 | 80 | 1005.1 |
| 20260509020255 | 73 | 89 | 2.6 | 5.2 | 0.00 | 0.17 | 0.17 | 80 | 1005.1 |
| 20260509015753 | 73 | 144 | 0.9 | 5.2 | 0.00 | 0.17 | 0.17 | 80 | 1005.0 |
| 20260509015251 | 73 | 170 | 2.6 | 4.3 | 0.00 | 0.17 | 0.17 | 80 | 1005.1 |
| 20260509014747 | 73 | 142 | 0.9 | 2.6 | 0.00 | 0.17 | 0.17 | 80 | 1005.0 |
| 20260509014244 | 73 | 168 | 1.7 | 1.7 | 0.00 | 0.17 | 0.17 | 80 | 1005.1 |
| 20260509013741 | 73 | 165 | 1.7 | 5.2 | 0.00 | 0.17 | 0.17 | 79 | 1005.0 |
| 20260509013237 | 73 | 146 | 0.9 | 2.6 | 0.00 | 0.17 | 0.17 | 79 | 1005.0 |
| 20260509012734 | 73 | 152 | 0.9 | 2.6 | 0.00 | 0.17 | 0.17 | 79 | 1004.9 |
| 20260509012230 | 73 | 212 | 1.7 | 4.3 | 0.00 | 0.17 | 0.17 | 79 | 1005.1 |
| 20260509011728 | 73 | 168 | 0.9 | 2.6 | 0.00 | 0.17 | 0.17 | 79 | 1004.7 |
| 20260509011225 | 73 | 167 | 1.7 | 4.3 | 0.00 | 0.17 | 0.17 | 78 | 1005.0 |
| 20260509010723 | 73 | 140 | 0.9 | 1.7 | 0.00 | 0.17 | 0.17 | 78 | 1004.8 |
| 20260509010219 | 73 | 166 | 4.3 | 5.2 | 0.00 | 0.17 | 0.17 | 78 | 1004.8 |
| 20260509005717 | 73 | 142 | 2.6 | 4.3 | 0.00 | 0.17 | 0.17 | 77 | 1004.9 |
| 20260509005214 | 73 | 165 | 1.7 | 4.3 | 0.00 | 0.17 | 0.17 | 76 | 1004.7 |
| 20260509004714 | 73 | 139 | 3.5 | 4.3 | 0.00 | 0.17 | 0.17 | 76 | 1004.5 |
| 20260509004212 | 74 | 122 | 0.9 | 2.6 | 0.00 | 0.17 | 0.17 | 76 | 1004.5 |
| 20260509003710 | 74 | 149 | 2.6 | 9.6 | 0.00 | 0.17 | 0.17 | 76 | 1004.4 |
| 20260509003207 | 74 | 176 | 2.6 | 7.0 | 0.00 | 0.17 | 0.17 | 76 | 1004.2 |
| 20260509002704 | 74 | 156 | 5.2 | 7.0 | 0.00 | 0.17 | 0.17 | 75 | 1004.3 |
| 20260509002202 | 74 | 151 | 3.5 | 8.7 | 0.00 | 0.17 | 0.17 | 76 | 1004.3 |
| 20260509001659 | 74 | 159 | 4.3 | 7.0 | 0.00 | 0.17 | 0.17 | 75 | 1004.5 |
| 20260509001155 | 74 | 220 | 4.3 | 7.8 | 0.00 | 0.17 | 0.17 | 76 | 1004.4 |
| 20260509000653 | 74 | 78 | 6.1 | 7.8 | 0.00 | 0.17 | 0.17 | 75 | 1004.4 |
| 20260509000150 | 74 | 174 | 2.6 | 7.8 | 0.00 | 0.17 | 0.17 | 74 | 1004.4 |
| 20260508235647 | 74 | 126 | 4.3 | 6.1 | 0.00 | 0.17 | 0.17 | 74 | 1004.6 |
| 20260508235143 | 74 | 124 | 5.2 | 7.8 | 0.00 | 0.17 | 0.17 | 74 | 1004.6 |
| 20260508234641 | 74 | 143 | 2.6 | 8.7 | 0.00 | 0.17 | 0.17 | 75 | 1004.6 |
| 20260508234136 | 75 | 146 | 2.6 | 7.0 | 0.00 | 0.17 | 0.17 | 74 | 1004.7 |
| 20260508233631 | 75 | 103 | 0.9 | 4.3 | 0.00 | 0.17 | 0.17 | 73 | 1004.7 |
| 20260508233128 | 75 | 132 | 2.6 | 5.2 | 0.00 | 0.17 | 0.17 | 72 | 1004.9 |
| 20260508232625 | 75 | 115 | 3.5 | 4.3 | 0.00 | 0.17 | 0.17 | 72 | 1004.7 |
| 20260508232122 | 75 | 192 | 1.7 | 5.2 | 0.00 | 0.17 | 0.17 | 72 | 1004.9 |
| 20260508231619 | 75 | 148 | 4.3 | 6.1 | 0.00 | 0.17 | 0.17 | 72 | 1004.9 |
| 20260508231116 | 75 | 189 | 2.6 | 6.1 | 0.00 | 0.17 | 0.17 | 73 | 1004.9 |
| 20260508230612 | 75 | 154 | 1.7 | 7.0 | 0.00 | 0.17 | 0.17 | 73 | 1004.9 |
| 20260508230109 | 75 | 205 | 4.3 | 6.1 | 0.00 | 0.17 | 0.17 | 74 | 1004.9 |
| 20260508225607 | 76 | 160 | 3.5 | 6.1 | 0.00 | 0.17 | 0.17 | 72 | 1005.0 |
| 20260508225103 | 76 | 198 | 2.6 | 7.8 | 0.00 | 0.17 | 0.17 | 72 | 1004.9 |
| 20260508224601 | 76 | 179 | 2.6 | 6.1 | 0.00 | 0.17 | 0.17 | 71 | 1004.9 |
| 20260508224058 | 75 | 136 | 1.7 | 6.1 | 0.00 | 0.17 | 0.17 | 72 | 1005.0 |
| 20260508223556 | 76 | 122 | 2.6 | 2.6 | 0.00 | 0.17 | 0.17 | 71 | 1005.0 |
| 20260508223053 | 76 | 170 | 1.7 | 2.6 | 0.00 | 0.17 | 0.17 | 71 | 1005.0 |
| 20260508222550 | 76 | 206 | 6.1 | 7.8 | 0.00 | 0.17 | 0.17 | 71 | 1004.9 |
| 20260508222047 | 76 | 196 | 2.6 | 7.8 | 0.00 | 0.17 | 0.17 | 71 | 1004.8 |
| 20260508221543 | 77 | 215 | 6.1 | 8.7 | 0.00 | 0.17 | 0.17 | 70 | 1004.8 |
| 20260508221039 | 77 | 149 | 3.5 | 7.0 | 0.00 | 0.17 | 0.17 | 71 | 1004.5 |
| 20260508220536 | 77 | 170 | 0.9 | 7.0 | 0.00 | 0.17 | 0.17 | 70 | 1004.6 |
| 20260508220032 | 77 | 113 | 0.9 | 5.2 | 0.00 | 0.17 | 0.17 | 69 | 1004.8 |
| 20260508215529 | 77 | 122 | 3.5 | 7.0 | 0.00 | 0.17 | 0.17 | 70 | 1004.7 |
| 20260508215026 | 77 | 127 | 3.5 | 7.0 | 0.00 | 0.17 | 0.17 | 69 | 1004.7 |
| 20260508214524 | 77 | 107 | 3.5 | 5.2 | 0.00 | 0.17 | 0.17 | 68 | 1004.5 |
| 20260508214020 | 77 | 103 | 2.6 | 6.1 | 0.00 | 0.17 | 0.17 | 69 | 1004.9 |
| 20260508213518 | 77 | 207 | 4.3 | 7.8 | 0.00 | 0.17 | 0.17 | 70 | 1004.6 |
| 20260508213013 | 76 | 144 | 4.3 | 6.1 | 0.00 | 0.17 | 0.17 | 69 | 1004.7 |
| 20260508212510 | 76 | 146 | 4.3 | 5.2 | 0.00 | 0.17 | 0.17 | 70 | 1004.8 |
| 20260508212006 | 76 | 124 | 4.3 | 8.7 | 0.00 | 0.17 | 0.17 | 69 | 1004.9 |
| 20260508211501 | 77 | 158 | 1.7 | 4.3 | 0.00 | 0.17 | 0.17 | 69 | 1004.9 |
| 20260508210958 | 76 | 153 | 3.5 | 7.8 | 0.00 | 0.17 | 0.17 | 70 | 1005.2 |
| 20260508210455 | 76 | 138 | 4.3 | 6.1 | 0.00 | 0.17 | 0.17 | 69 | 1005.4 |
| 20260508205951 | 76 | 141 | 6.1 | 7.8 | 0.00 | 0.17 | 0.17 | 69 | 1005.7 |
| 20260508205449 | 75 | 155 | 2.6 | 4.3 | 0.00 | 0.17 | 0.17 | 71 | 1006.0 |
| 20260508204945 | 74 | 210 | 5.2 | 7.8 | 0.00 | 0.17 | 0.17 | 72 | 1006.3 |
| 20260508204442 | 74 | 162 | 7.0 | 8.7 | 0.00 | 0.17 | 0.17 | 71 | 1006.5 |
| 20260508203937 | 75 | 190 | 4.3 | 7.8 | 0.00 | 0.17 | 0.17 | 71 | 1006.8 |
| 20260508203434 | 75 | 189 | 1.7 | 5.2 | 0.00 | 0.17 | 0.17 | 71 | 1006.8 |
| 20260508202930 | 75 | 218 | 4.3 | 6.1 | 0.00 | 0.17 | 0.17 | 70 | 1007.0 |
| 20260508202427 | 75 | 175 | 1.7 | 6.1 | 0.00 | 0.17 | 0.17 | 71 | 1006.8 |
| 20260508201924 | 75 | 138 | 4.3 | 6.1 | 0.00 | 0.17 | 0.17 | 70 | 1006.9 |
| 20260508201421 | 76 | 145 | 2.6 | 7.8 | 0.00 | 0.17 | 0.17 | 70 | 1006.9 |
| 20260508200918 | 76 | 223 | 0.9 | 5.2 | 0.00 | 0.17 | 0.17 | 69 | 1006.9 |
| 20260508200414 | 76 | 204 | 3.5 | 5.2 | 0.00 | 0.17 | 0.17 | 69 | 1006.7 |
| 20260508195904 | 76 | 127 | 2.6 | 7.0 | 0.00 | 0.17 | 0.17 | 68 | 1006.7 |
| 20260508195401 | 76 | 215 | 3.5 | 6.1 | 0.00 | 0.17 | 0.17 | 67 | 1006.7 |
| 20260508194857 | 77 | 220 | 3.5 | 6.1 | 0.00 | 0.17 | 0.17 | 68 | 1006.9 |
| 20260508194354 | 77 | 155 | 5.2 | 6.1 | 0.00 | 0.17 | 0.17 | 67 | 1006.9 |
| 20260508193852 | 77 | 152 | 1.7 | 5.2 | 0.00 | 0.17 | 0.17 | 68 | 1007.0 |
| 20260508193348 | 77 | 100 | 2.6 | 6.1 | 0.00 | 0.17 | 0.17 | 66 | 1007.1 |
| 20260508192844 | 77 | 205 | 2.6 | 4.3 | 0.00 | 0.17 | 0.17 | 67 | 1007.0 |
| 20260508192342 | 77 | 182 | 1.7 | 8.7 | 0.00 | 0.17 | 0.17 | 67 | 1007.1 |
| 20260508191839 | 78 | 141 | 3.5 | 5.2 | 0.00 | 0.17 | 0.17 | 64 | 1007.1 |
| 20260508191336 | 77 | 144 | 1.7 | 6.1 | 0.00 | 0.17 | 0.17 | 65 | 1007.0 |
| 20260508190833 | 78 | 183 | 1.7 | 4.3 | 0.00 | 0.17 | 0.17 | 63 | 1007.3 |
| 20260508190329 | 77 | 159 | 2.6 | 2.6 | 0.00 | 0.17 | 0.17 | 63 | 1007.0 |
| 20260508185826 | 78 | 151 | 2.6 | 6.1 | 0.00 | 0.17 | 0.17 | 64 | 1006.9 |
| 20260508185323 | 78 | 125 | 2.6 | 5.2 | 0.00 | 0.17 | 0.17 | 62 | 1007.2 |
| 20260508184820 | 77 | 120 | 3.5 | 6.1 | 0.00 | 0.17 | 0.17 | 63 | 1007.1 |
| 20260508184318 | 77 | 101 | 2.6 | 4.3 | 0.00 | 0.17 | 0.17 | 61 | 1007.1 |
| 20260508183815 | 77 | 164 | 1.7 | 7.0 | 0.00 | 0.17 | 0.17 | 64 | 1007.4 |
| 20260508183311 | 77 | 131 | 3.5 | 4.3 | 0.00 | 0.17 | 0.17 | 62 | 1007.4 |
| 20260508182807 | 76 | 150 | 1.7 | 2.6 | 0.00 | 0.17 | 0.17 | 64 | 1007.5 |
| 20260508182306 | 76 | 142 | 0.9 | 2.6 | 0.00 | 0.17 | 0.17 | 63 | 1007.7 |
| 20260508181759 | 76 | 120 | 4.3 | 7.0 | 0.00 | 0.17 | 0.17 | 63 | 1007.6 |
| 20260508181256 | 75 | 172 | 0.9 | 7.0 | 0.00 | 0.17 | 0.17 | 64 | 1007.7 |
| 20260508180754 | 76 | 199 | 2.6 | 2.6 | 0.00 | 0.17 | 0.17 | 65 | 1008.0 |
| 20260508180250 | 75 | 129 | 0.0 | 5.2 | 0.00 | 0.17 | 0.17 | 65 | 1008.1 |
| 20260508175747 | 75 | 144 | 0.0 | 1.7 | 0.00 | 0.17 | 0.17 | 64 | 1008.1 |
| 20260508175243 | 76 | 185 | 4.3 | 7.0 | 0.00 | 0.17 | 0.17 | 65 | 1008.2 |
| 20260508174741 | 75 | 181 | 3.5 | 5.2 | 0.00 | 0.17 | 0.17 | 64 | 1008.1 |
| 20260508174239 | 75 | 161 | 2.6 | 2.6 | 0.00 | 0.17 | 0.17 | 65 | 1008.3 |
| 20260508173735 | 75 | 65 | 0.9 | 1.7 | 0.00 | 0.17 | 0.17 | 65 | 1008.3 |
| 20260508173231 | 74 | 138 | 2.6 | 5.2 | 0.00 | 0.17 | 0.17 | 65 | 1008.4 |
| 20260508172727 | 75 | 163 | 1.7 | 4.3 | 0.00 | 0.17 | 0.17 | 67 | 1008.4 |
| 20260508172225 | 74 | 142 | 3.5 | 4.3 | 0.00 | 0.17 | 0.17 | 67 | 1008.5 |
| 20260508171721 | 73 | 202 | 1.7 | 1.7 | 0.00 | 0.17 | 0.17 | 67 | 1008.6 |
| 20260508171217 | 72 | 157 | 1.7 | 2.6 | 0.00 | 0.17 | 0.17 | 68 | 1008.9 |
| 20260508170714 | 73 | 167 | 3.5 | 6.1 | 0.00 | 0.17 | 0.17 | 66 | 1009.0 |
| 20260508170212 | 73 | 179 | 1.7 | 7.8 | 0.00 | 0.17 | 0.17 | 67 | 1009.1 |
| 20260508165709 | 73 | 167 | 2.6 | 7.0 | 0.00 | 0.17 | 0.17 | 67 | 1009.4 |
| 20260508165206 | 73 | 171 | 4.3 | 5.2 | 0.00 | 0.17 | 0.17 | 67 | 1009.5 |
| 20260508164703 | 71 | 174 | 1.7 | 5.2 | 0.00 | 0.17 | 0.17 | 68 | 1009.5 |
| 20260508164159 | 70 | 178 | 1.7 | 2.6 | 0.00 | 0.17 | 0.17 | 68 | 1009.7 |
| 20260508163657 | 70 | 168 | 2.6 | 4.3 | 0.00 | 0.17 | 0.17 | 69 | 1009.7 |
| 20260508163154 | 71 | 96 | 1.7 | 2.6 | 0.00 | 0.17 | 0.17 | 69 | 1009.7 |
| 20260508162649 | 70 | 162 | 2.6 | 6.1 | 0.00 | 0.17 | 0.17 | 69 | 1010.0 |
| 20260508162147 | 69 | 96 | 1.7 | 6.1 | 0.00 | 0.17 | 0.17 | 70 | 1009.9 |
| 20260508161644 | 69 | 141 | 2.6 | 4.3 | 0.00 | 0.17 | 0.17 | 70 | 1010.1 |
| 20260508161142 | 69 | 147 | 2.6 | 7.0 | 0.00 | 0.17 | 0.17 | 71 | 1010.1 |
| 20260508160639 | 69 | 147 | 2.6 | 2.6 | 0.00 | 0.17 | 0.17 | 71 | 1010.0 |
| 20260508160137 | 69 | 190 | 3.5 | 5.2 | 0.00 | 0.17 | 0.17 | 71 | 1010.0 |
| 20260508155634 | 68 | 146 | 0.9 | 5.2 | 0.00 | 0.17 | 0.17 | 73 | 1010.2 |
| 20260508155131 | 68 | 151 | 1.7 | 5.2 | 0.00 | 0.17 | 0.17 | 73 | 1010.1 |
| 20260508154628 | 68 | 139 | 0.9 | 2.6 | 0.00 | 0.17 | 0.17 | 74 | 1010.3 |
| 20260508154124 | 68 | 185 | 2.6 | 6.1 | 0.00 | 0.17 | 0.17 | 72 | 1010.5 |
| 20260508153621 | 68 | 201 | 0.9 | 1.7 | 0.00 | 0.17 | 0.17 | 74 | 1010.4 |
| 20260508153118 | 67 | 189 | 4.3 | 6.1 | 0.00 | 0.17 | 0.17 | 74 | 1010.2 |
| 20260508152615 | 67 | 134 | 2.6 | 7.0 | 0.00 | 0.17 | 0.17 | 74 | 1010.3 |
| 20260508152110 | 68 | 127 | 3.5 | 5.2 | 0.00 | 0.17 | 0.17 | 74 | 1010.5 |
| 20260508151607 | 67 | 201 | 0.9 | 4.3 | 0.00 | 0.17 | 0.17 | 75 | 1010.4 |
| 20260508151104 | 67 | 216 | 2.6 | 4.3 | 0.00 | 0.17 | 0.17 | 75 | 1010.6 |
| 20260508150601 | 67 | 158 | 1.7 | 6.1 | 0.00 | 0.17 | 0.17 | 76 | 1010.4 |
| 20260508150057 | 68 | 149 | 2.6 | 4.3 | 0.00 | 0.17 | 0.17 | 75 | 1010.3 |
| 20260508145553 | 67 | 185 | 0.9 | 1.7 | 0.00 | 0.17 | 0.17 | 78 | 1010.4 |
| 20260508145050 | 67 | 144 | 0.9 | 2.6 | 0.00 | 0.17 | 0.17 | 77 | 1010.6 |
| 20260508144548 | 67 | 184 | 2.6 | 5.2 | 0.00 | 0.17 | 0.17 | 77 | 1010.4 |
| 20260508144045 | 66 | 153 | 2.6 | 6.1 | 0.00 | 0.17 | 0.17 | 79 | 1010.5 |
| 20260508143543 | 66 | 159 | 0.9 | 4.3 | 0.00 | 0.17 | 0.17 | 80 | 1010.6 |
| 20260508143039 | 66 | 150 | 2.6 | 2.6 | 0.00 | 0.17 | 0.17 | 79 | 1010.6 |
| 20260508142536 | 66 | 148 | 2.6 | 5.2 | 0.00 | 0.17 | 0.17 | 78 | 1010.8 |
| 20260508142032 | 66 | 220 | 4.3 | 6.1 | 0.00 | 0.17 | 0.17 | 78 | 1010.7 |
| 20260508141529 | 65 | 172 | 1.7 | 2.6 | 0.00 | 0.17 | 0.17 | 83 | 1010.7 |
| 20260508141027 | 64 | 136 | 1.7 | 1.7 | 0.00 | 0.17 | 0.17 | 85 | 1010.9 |
| 20260508140524 | 64 | 183 | 0.9 | 4.3 | 0.00 | 0.17 | 0.17 | 85 | 1011.1 |
| 20260508140020 | 64 | 135 | 0.0 | 1.7 | 0.00 | 0.17 | 0.17 | 87 | 1010.8 |
| 20260508135516 | 64 | 121 | 0.9 | 0.9 | 0.00 | 0.17 | 0.17 | 87 | 1010.6 |
| 20260508135012 | 64 | 135 | 0.9 | 1.7 | 0.00 | 0.17 | 0.17 | 88 | 1010.9 |
| 20260508134509 | 63 | 152 | 0.9 | 2.6 | 0.00 | 0.17 | 0.17 | 89 | 1010.8 |
| 20260508134006 | 63 | 138 | 0.0 | 0.9 | 0.00 | 0.17 | 0.17 | 90 | 1010.8 |
| 20260508133503 | 63 | 136 | 0.0 | 0.0 | 0.00 | 0.17 | 0.17 | 89 | 1010.7 |
| 20260508133000 | 62 | 133 | 0.9 | 0.9 | 0.00 | 0.17 | 0.17 | 90 | 1010.9 |
| 20260508132458 | 61 | 185 | 0.0 | 1.7 | 0.00 | 0.17 | 0.17 | 92 | 1010.8 |
| 20260508131954 | 61 | 166 | 0.9 | 1.7 | 0.00 | 0.17 | 0.17 | 91 | 1011.0 |
| 20260508131450 | 61 | 152 | 0.9 | 2.6 | 0.00 | 0.17 | 0.17 | 91 | 1010.7 |
| 20260508130947 | 61 | 136 | 0.0 | 0.9 | 0.00 | 0.17 | 0.17 | 92 | 1010.6 |
| 20260508130444 | 61 | 160 | 0.9 | 1.7 | 0.00 | 0.17 | 0.17 | 92 | 1010.6 |
| 20260508125939 | 61 | 124 | 0.9 | 1.7 | 0.00 | 0.17 | 0.17 | 95 | 1010.8 |
| 20260508125436 | 60 | 147 | 0.9 | 1.7 | 0.05 | 0.17 | 0.17 | 94 | 1011.3 |
| 20260508124934 | 60 | 216 | 0.0 | 0.9 | 0.24 | 0.17 | 0.17 | 92 | 1011.3 |
| 20260508124431 | 61 | 132 | 1.7 | 1.7 | 0.26 | 0.16 | 0.16 | 91 | 1010.7 |
| 20260508123929 | 61 | 181 | 2.6 | 5.2 | 0.07 | 0.13 | 0.13 | 90 | 1010.8 |
| 20260508123427 | 61 | 167 | 0.9 | 1.7 | 0.00 | 0.12 | 0.12 | 91 | 1011.3 |
| 20260508122923 | 61 | 208 | 0.9 | 0.9 | 0.00 | 0.12 | 0.12 | 90 | 1011.4 |
| 20260508122420 | 62 | 173 | 0.9 | 1.7 | 0.00 | 0.12 | 0.12 | 88 | 1011.3 |
| 20260508121917 | 62 | 151 | 2.6 | 4.3 | 0.00 | 0.12 | 0.12 | 88 | 1011.1 |
| 20260508121415 | 61 | 167 | 1.7 | 2.6 | 0.00 | 0.12 | 0.12 | 89 | 1011.0 |
| 20260508120913 | 61 | 156 | 0.9 | 1.7 | 0.00 | 0.12 | 0.12 | 90 | 1011.0 |
| 20260508120410 | 61 | 185 | 0.9 | 1.7 | 0.00 | 0.12 | 0.12 | 89 | 1010.8 |
| 20260508115908 | 61 | 152 | 2.6 | 4.3 | 0.00 | 0.12 | 0.12 | 90 | 1010.7 |
| 20260508115406 | 60 | 137 | 1.7 | 4.3 | 0.00 | 0.12 | 0.12 | 92 | 1010.8 |
| 20260508114902 | 60 | 189 | 0.9 | 1.7 | 0.00 | 0.12 | 0.12 | 93 | 1011.3 |
| 20260508114359 | 60 | 147 | 0.9 | 4.3 | 0.00 | 0.12 | 0.12 | 95 | 1011.0 |
| 20260508113855 | 60 | 121 | 0.0 | 0.9 | 0.00 | 0.12 | 0.12 | 98 | 1010.8 |
| 20260508113353 | 60 | 139 | 0.9 | 1.7 | 0.00 | 0.12 | 0.12 | 99 | 1010.9 |
| 20260508112850 | 60 | 151 | 0.0 | 0.0 | 0.00 | 0.12 | 0.12 | 99 | 1010.9 |
| 20260508112347 | 60 | 128 | 0.0 | 0.0 | 0.00 | 0.12 | 0.12 | 99 | 1011.1 |
| 20260508111843 | 60 | 87 | 0.0 | 0.0 | 0.05 | 0.12 | 0.12 | 99 | 1010.7 |
| 20260508111340 | 60 | 98 | 0.0 | 0.0 | 0.12 | 0.12 | 0.12 | 99 | 1010.5 |
| 20260508110838 | 60 | 116 | 1.7 | 1.7 | 0.07 | 0.11 | 0.11 | 99 | 1010.7 |
| 20260508110335 | 60 | 186 | 0.0 | 0.0 | 0.00 | 0.10 | 0.10 | 99 | 1010.8 |
| 20260508105835 | 60 | 197 | 0.0 | 0.0 | 0.00 | 0.10 | 0.10 | 99 | 1011.6 |
| 20260508105332 | 60 | 300 | 1.7 | 2.6 | 0.00 | 0.10 | 0.10 | 99 | 1011.9 |
| 20260508104829 | 60 | 309 | 1.7 | 1.7 | 0.00 | 0.10 | 0.10 | 98 | 1011.1 |
| 20260508104326 | 60 | 169 | 0.9 | 1.7 | 0.00 | 0.10 | 0.10 | 98 | 1011.0 |
| 20260508103823 | 60 | 72 | 0.9 | 0.9 | 0.00 | 0.10 | 0.10 | 98 | 1011.4 |
| 20260508103320 | 60 | 242 | 1.7 | 2.6 | 0.00 | 0.10 | 0.10 | 99 | 1011.3 |
| 20260508102818 | 60 | 350 | 0.0 | 0.0 | 0.00 | 0.10 | 0.10 | 98 | 1010.3 |
| 20260508102315 | 60 | 28 | 0.0 | 0.0 | 0.00 | 0.10 | 0.10 | 98 | 1010.3 |
| 20260508101812 | 60 | 357 | 0.0 | 1.7 | 0.00 | 0.10 | 0.10 | 97 | 1010.6 |
| 20260508101310 | 60 | 226 | 0.9 | 2.6 | 0.00 | 0.10 | 0.10 | 96 | 1010.4 |
| 20260508100807 | 59 | 159 | 0.9 | 4.3 | 0.00 | 0.10 | 0.10 | 96 | 1009.9 |
| 20260508100306 | 60 | 157 | 0.9 | 2.6 | 0.00 | 0.10 | 0.10 | 97 | 1009.9 |
| 20260508095801 | 60 | 116 | 0.9 | 1.7 | 0.00 | 0.10 | 0.10 | 99 | 1009.9 |
| 20260508095259 | 60 | 169 | 0.0 | 0.0 | 0.00 | 0.10 | 0.10 | 99 | 1009.8 |
| 20260508094755 | 60 | 102 | 0.0 | 0.0 | 0.00 | 0.10 | 0.10 | 99 | 1010.0 |
| 20260508094253 | 60 | 131 | 0.0 | 0.0 | 0.00 | 0.10 | 0.10 | 99 | 1010.3 |
| 20260508093749 | 60 | 134 | 0.0 | 0.0 | 0.00 | 0.10 | 0.10 | 99 | 1009.9 |
| 20260508093247 | 60 | 136 | 0.0 | 0.0 | 0.00 | 0.10 | 0.10 | 99 | 1010.1 |
| 20260508092744 | 60 | 142 | 0.0 | 0.0 | 0.00 | 0.10 | 0.10 | 99 | 1010.3 |
| 20260508092242 | 60 | 191 | 0.0 | 0.0 | 0.00 | 0.10 | 0.10 | 98 | 1010.2 |
| 20260508091740 | 60 | 138 | 0.9 | 1.7 | 0.00 | 0.10 | 0.10 | 98 | 1010.1 |
| 20260508091236 | 60 | 171 | 0.0 | 0.9 | 0.00 | 0.10 | 0.10 | 98 | 1010.3 |
| 20260508090734 | 60 | 182 | 0.0 | 0.0 | 0.05 | 0.10 | 0.10 | 98 | 1010.5 |
| 20260508090232 | 60 | 172 | 0.0 | 0.0 | 0.17 | 0.10 | 0.10 | 98 | 1010.4 |
| 20260508085727 | 60 | 46 | 0.0 | 0.0 | 0.05 | 0.08 | 0.08 | 97 | 1010.2 |
| 20260508085225 | 60 | 27 | 0.0 | 0.0 | 0.00 | 0.07 | 0.07 | 97 | 1010.8 |
| 20260508084720 | 60 | 6 | 0.0 | 1.7 | 0.00 | 0.07 | 0.07 | 96 | 1010.8 |
| 20260508084218 | 60 | 299 | 0.9 | 2.6 | 0.00 | 0.07 | 0.07 | 96 | 1011.0 |
| 20260508083716 | 60 | 311 | 1.7 | 1.7 | 0.12 | 0.07 | 0.07 | 95 | 1010.4 |
| 20260508083213 | 60 | 102 | 0.9 | 1.7 | 0.19 | 0.07 | 0.07 | 95 | 1009.6 |
| 20260508082708 | 60 | 86 | 1.7 | 1.7 | 0.00 | 0.04 | 0.04 | 96 | 1010.4 |
| 20260508082206 | 60 | 114 | 0.0 | 0.0 | 0.00 | 0.04 | 0.04 | 94 | 1010.8 |
| 20260508081703 | 60 | 263 | 0.0 | 0.9 | 0.05 | 0.04 | 0.04 | 93 | 1011.5 |
| 20260508081159 | 61 | 12 | 0.0 | 0.0 | 0.24 | 0.04 | 0.04 | 91 | 1011.1 |
| 20260508080657 | 62 | 337 | 0.9 | 1.7 | 0.19 | 0.03 | 0.03 | 86 | 1011.0 |